Terminal Aerodrome Forecast
Issued by NWS

Home | Current Version | Previous Version | Text Only | Print | Product List | Glossary On
Versions: 1 2 3 4 5 6 7 8 9 10 11 12 13
000
FTUS44 KCRP 241100
TAFALI
TAF
KALI 241124Z 2412/2512 03005KT P6SM FEW100
     FM242300 11007KT P6SM FEW060
     FM250600 VRB03KT P6SM SKC=

USA.gov is the U.S. government's official web portal to all federal, state and local government web resources and services.